createdAt,value
2023-05-03T00:01:32.811Z,61.03
2023-05-03T00:03:59.499Z,61.41
2023-05-03T00:06:26.116Z,61.50
2023-05-03T00:08:52.758Z,61.07
2023-05-03T00:11:19.380Z,60.96
2023-05-03T00:13:45.970Z,60.49
2023-05-03T00:16:12.610Z,60.58
2023-05-03T00:18:39.216Z,60.55
2023-05-03T00:21:05.829Z,60.75
2023-05-03T00:23:32.403Z,60.26
2023-05-03T00:25:59.039Z,60.61
2023-05-03T00:28:25.724Z,59.93
2023-05-03T00:30:52.480Z,59.86
2023-05-03T00:33:19.085Z,61.64
2023-05-03T00:35:45.978Z,61.36
2023-05-03T00:38:12.695Z,61.40
2023-05-03T00:40:39.297Z,62.01
2023-05-03T00:43:05.881Z,61.43
2023-05-03T00:45:32.459Z,61.17
2023-05-03T00:47:59.078Z,60.81
2023-05-03T00:50:25.697Z,60.21
2023-05-03T00:52:52.341Z,61.12
2023-05-03T00:55:18.926Z,61.43
2023-05-03T00:57:45.593Z,61.17
2023-05-03T01:00:12.221Z,60.86
2023-05-03T01:02:38.878Z,60.65
2023-05-03T01:05:05.496Z,61.22
2023-05-03T01:07:32.062Z,62.30
2023-05-03T01:09:58.700Z,61.68
2023-05-03T01:12:25.266Z,60.58
2023-05-03T01:14:51.948Z,61.25
2023-05-03T01:17:18.702Z,61.74
2023-05-03T01:19:45.305Z,61.89
2023-05-03T01:22:11.886Z,61.93
2023-05-03T01:24:38.458Z,61.74
2023-05-03T01:27:05.053Z,61.99
2023-05-03T01:29:31.646Z,61.78
2023-05-03T01:31:58.449Z,61.39
2023-05-03T01:34:25.100Z,61.30
2023-05-03T01:36:51.709Z,61.23
2023-05-03T01:39:18.315Z,61.00
2023-05-03T01:41:44.881Z,62.74
2023-05-03T01:44:11.470Z,62.13
2023-05-03T01:46:38.085Z,61.52
2023-05-03T01:49:04.657Z,61.65
2023-05-03T01:51:31.242Z,61.44
2023-05-03T01:53:57.851Z,61.96
2023-05-03T01:56:24.451Z,62.17
2023-05-03T01:58:51.017Z,62.15
2023-05-03T02:01:17.629Z,61.98
2023-05-03T02:03:44.257Z,61.53
2023-05-03T02:06:10.916Z,62.55
2023-05-03T02:08:37.498Z,62.60
2023-05-03T02:11:04.081Z,62.67
2023-05-03T02:13:30.733Z,62.68
2023-05-03T02:15:57.321Z,62.56
2023-05-03T02:18:23.918Z,62.41
2023-05-03T02:20:50.530Z,62.17
2023-05-03T02:23:17.116Z,62.14
2023-05-03T02:25:43.691Z,62.44
2023-05-03T02:28:10.250Z,62.59
2023-05-03T02:30:36.877Z,62.54
2023-05-03T02:33:03.585Z,62.41
2023-05-03T02:35:30.216Z,62.66
2023-05-03T02:37:56.775Z,63.48
2023-05-03T02:40:23.365Z,63.30
2023-05-03T02:42:49.944Z,63.12
2023-05-03T02:45:16.544Z,62.42
2023-05-03T02:47:43.185Z,62.60
2023-05-03T02:50:09.769Z,62.42
2023-05-03T02:52:36.368Z,62.72
2023-05-03T02:55:04.706Z,62.22
2023-05-03T02:57:31.294Z,62.72
2023-05-03T02:59:57.886Z,62.22
2023-05-03T03:02:24.529Z,61.82
2023-05-03T03:04:51.226Z,62.42
2023-05-03T03:07:17.837Z,62.24
2023-05-03T03:09:44.472Z,62.46
2023-05-03T03:12:11.140Z,62.04
2023-05-03T03:14:37.715Z,61.40
2023-05-03T03:17:04.325Z,61.62
2023-05-03T03:19:30.909Z,61.81
2023-05-03T03:21:57.647Z,61.86
2023-05-03T03:24:24.226Z,61.78
2023-05-03T03:26:50.818Z,62.04
2023-05-03T03:29:17.408Z,61.73
2023-05-03T03:31:44.135Z,62.80
2023-05-03T03:34:10.747Z,62.11
2023-05-03T03:36:37.355Z,62.25
2023-05-03T03:39:03.937Z,62.41
2023-05-03T03:41:30.494Z,61.66
2023-05-03T03:43:57.084Z,62.05
2023-05-03T03:46:23.730Z,63.14
2023-05-03T03:48:50.341Z,62.87
2023-05-03T03:51:16.900Z,62.63
2023-05-03T03:53:43.526Z,62.76
2023-05-03T03:56:10.104Z,62.58
2023-05-03T03:58:36.709Z,63.04
2023-05-03T04:01:03.290Z,63.21
2023-05-03T04:03:30.050Z,62.87
2023-05-03T04:05:56.694Z,62.92
2023-05-03T04:08:23.262Z,62.70
2023-05-03T04:10:49.861Z,62.69
2023-05-03T04:13:16.600Z,62.74
2023-05-03T04:15:43.167Z,62.24
2023-05-03T04:18:09.844Z,62.21
2023-05-03T04:20:36.493Z,62.46
2023-05-03T04:23:03.101Z,62.42
2023-05-03T04:25:29.674Z,62.03
2023-05-03T04:27:56.267Z,61.92
2023-05-03T04:30:22.840Z,62.02
2023-05-03T04:32:49.534Z,62.37
2023-05-03T04:35:16.136Z,62.22
2023-05-03T04:37:42.775Z,61.27
2023-05-03T04:40:09.404Z,61.71
2023-05-03T04:42:36.046Z,62.45
2023-05-03T04:45:02.733Z,62.09
2023-05-03T04:47:29.334Z,61.85
2023-05-03T04:49:55.897Z,61.79
2023-05-03T04:52:22.504Z,61.08
2023-05-03T04:54:49.063Z,60.94
2023-05-03T04:57:15.647Z,61.44
2023-05-03T04:59:42.267Z,61.76
2023-05-03T05:02:08.900Z,61.94
2023-05-03T05:04:35.657Z,61.85
2023-05-03T05:07:02.238Z,62.86
2023-05-03T05:09:28.841Z,62.12
2023-05-03T05:11:57.002Z,61.91
2023-05-03T05:14:23.912Z,61.32
2023-05-03T05:16:50.521Z,61.26
2023-05-03T05:19:17.144Z,60.97
2023-05-03T05:21:43.800Z,60.61
2023-05-03T05:24:10.366Z,60.93
2023-05-03T05:26:37.090Z,60.37
2023-05-03T05:29:03.685Z,60.32
2023-05-03T05:31:30.373Z,59.73
2023-05-03T05:33:57.139Z,60.05
2023-05-03T05:36:23.768Z,60.02
2023-05-03T05:38:50.330Z,60.58
2023-05-03T05:41:16.988Z,60.05
2023-05-03T05:43:43.570Z,59.56
2023-05-03T05:46:10.492Z,59.82
2023-05-03T05:48:37.058Z,59.39
2023-05-03T05:51:03.859Z,59.19
2023-05-03T05:53:30.466Z,58.90
2023-05-03T05:55:57.023Z,58.63
2023-05-03T05:58:23.620Z,58.54
2023-05-03T06:00:50.364Z,58.71
2023-05-03T06:03:16.952Z,58.69
2023-05-03T06:05:43.658Z,59.13
2023-05-03T06:08:10.243Z,58.71
2023-05-03T06:10:36.827Z,58.93
2023-05-03T06:13:03.540Z,58.65
2023-05-03T06:15:31.134Z,58.27
2023-05-03T06:17:57.801Z,57.96
2023-05-03T06:20:24.849Z,57.93
2023-05-03T06:22:51.411Z,57.90
2023-05-03T06:25:18.252Z,56.87
2023-05-03T06:27:45.070Z,56.75
2023-05-03T06:30:11.667Z,57.57
2023-05-03T06:32:38.424Z,57.52
2023-05-03T06:35:05.153Z,56.94
2023-05-03T06:37:31.757Z,56.75
2023-05-03T06:39:58.340Z,56.41
2023-05-03T06:42:24.903Z,55.95
2023-05-03T06:44:51.561Z,55.68
2023-05-03T06:47:18.176Z,55.00
2023-05-03T06:49:44.750Z,53.71
2023-05-03T06:52:11.896Z,54.05
2023-05-03T06:54:38.709Z,53.31
2023-05-03T06:57:05.314Z,52.64
2023-05-03T06:59:31.900Z,53.00
2023-05-03T07:01:58.542Z,52.93
2023-05-03T07:04:25.128Z,51.76
2023-05-03T07:06:56.348Z,52.13
2023-05-03T07:09:35.327Z,51.54
2023-05-03T07:12:08.453Z,50.40
2023-05-03T07:14:35.106Z,50.78
2023-05-03T07:17:01.688Z,50.85
2023-05-03T07:19:28.277Z,50.29
2023-05-03T07:21:54.841Z,49.30
2023-05-03T07:24:21.473Z,49.49
2023-05-03T07:26:49.205Z,49.78
2023-05-03T07:29:16.021Z,49.58
2023-05-03T07:31:42.586Z,50.36
2023-05-03T07:34:09.157Z,48.62
2023-05-03T07:36:35.744Z,48.32
2023-05-03T07:39:02.358Z,49.62
2023-05-03T07:41:29.177Z,49.72
2023-05-03T07:43:55.841Z,47.74
2023-05-03T07:46:22.520Z,48.21
2023-05-03T07:48:49.315Z,49.35
2023-05-03T07:51:15.933Z,48.83
2023-05-03T07:53:42.514Z,47.90
2023-05-03T07:56:09.100Z,48.76
2023-05-03T07:58:40.528Z,47.23
2023-05-03T08:01:07.643Z,47.07
2023-05-03T08:03:34.540Z,47.83
2023-05-03T08:06:01.280Z,48.31
2023-05-03T08:08:28.097Z,49.18
2023-05-03T08:10:54.742Z,48.39
2023-05-03T08:13:21.504Z,47.84
2023-05-03T08:15:48.107Z,47.50
2023-05-03T08:18:14.751Z,46.95
2023-05-03T08:20:41.372Z,46.08
2023-05-03T08:23:07.972Z,46.95
2023-05-03T08:25:35.044Z,46.63
2023-05-03T08:28:01.682Z,47.39
2023-05-03T08:30:28.312Z,46.29
2023-05-03T08:32:55.001Z,45.92
2023-05-03T08:35:21.713Z,46.45
2023-05-03T08:37:48.371Z,46.11
2023-05-03T08:40:14.959Z,45.78
2023-05-03T08:42:41.544Z,45.32
2023-05-03T08:45:08.129Z,46.26
2023-05-03T08:47:34.750Z,46.31
2023-05-03T08:50:01.515Z,44.89
2023-05-03T08:52:28.266Z,45.15
2023-05-03T08:54:54.851Z,45.56
2023-05-03T08:57:21.470Z,44.21
2023-05-03T08:59:48.029Z,45.51
2023-05-03T09:04:41.232Z,46.12
2023-05-03T09:07:07.824Z,45.68
2023-05-03T09:09:34.385Z,45.95
2023-05-03T09:12:00.948Z,44.65
2023-05-03T09:14:27.609Z,45.40
2023-05-03T09:16:54.206Z,45.30
2023-05-03T09:19:20.847Z,44.81
2023-05-03T09:21:47.548Z,44.71
2023-05-03T09:24:14.167Z,44.20
2023-05-03T09:26:40.745Z,44.67
2023-05-03T09:29:07.342Z,44.55
2023-05-03T09:31:33.928Z,44.04
2023-05-03T09:34:00.574Z,43.07
2023-05-03T09:36:27.148Z,44.72
2023-05-03T09:38:53.871Z,44.74
2023-05-03T09:41:20.465Z,43.47
2023-05-03T09:43:47.087Z,43.07
2023-05-03T09:46:13.809Z,41.70
2023-05-03T09:48:40.548Z,42.78
2023-05-03T09:51:07.178Z,41.95
2023-05-03T09:53:33.743Z,41.37
2023-05-03T09:56:00.381Z,40.75
2023-05-03T09:58:26.972Z,41.72
2023-05-03T10:00:53.595Z,41.16
2023-05-03T10:03:20.251Z,41.45
2023-05-03T10:05:47.048Z,41.70
2023-05-03T10:08:14.038Z,41.74
2023-05-03T10:10:40.706Z,42.49
2023-05-03T10:13:07.392Z,42.32
2023-05-03T10:15:34.078Z,41.79
2023-05-03T10:18:00.797Z,41.52
2023-05-03T10:20:27.462Z,42.16
2023-05-03T10:22:54.057Z,42.54
2023-05-03T10:25:20.701Z,42.46
2023-05-03T10:27:47.304Z,42.44
2023-05-03T10:30:14.234Z,42.56
2023-05-03T10:32:40.951Z,43.04
2023-05-03T10:35:07.727Z,41.20
2023-05-03T10:37:34.737Z,41.29
2023-05-03T10:40:01.434Z,41.51
2023-05-03T10:42:28.235Z,41.13
2023-05-03T10:44:54.854Z,42.32
2023-05-03T10:47:21.688Z,41.67
2023-05-03T10:49:48.489Z,40.95
2023-05-03T10:52:15.255Z,40.86
2023-05-03T10:54:42.038Z,41.21
2023-05-03T10:57:08.649Z,41.48
2023-05-03T10:59:35.333Z,41.09
2023-05-03T11:02:02.043Z,41.19
2023-05-03T11:04:31.053Z,41.22
2023-05-03T11:06:58.553Z,40.78
2023-05-03T11:09:26.898Z,41.73
2023-05-03T11:11:53.734Z,41.07
2023-05-03T11:14:20.790Z,40.44
2023-05-03T11:16:48.276Z,40.67
2023-05-03T11:19:15.116Z,41.84
2023-05-03T11:21:41.882Z,41.78
2023-05-03T11:24:08.524Z,40.18
2023-05-03T11:26:35.424Z,41.02
2023-05-03T11:29:02.186Z,41.78
2023-05-03T11:31:28.942Z,41.70
2023-05-03T11:33:55.681Z,42.18
2023-05-03T11:36:22.680Z,41.81
2023-05-03T11:38:49.461Z,41.80
2023-05-03T11:41:16.145Z,41.26
2023-05-03T11:43:42.806Z,41.40
2023-05-03T11:48:36.518Z,44.29
2023-05-03T11:51:03.188Z,45.68
2023-05-03T11:53:29.829Z,46.00
2023-05-03T11:55:57.081Z,47.10
2023-05-03T11:58:23.894Z,48.01
2023-05-03T12:00:51.036Z,47.44
2023-05-03T12:03:18.135Z,48.00
2023-05-03T12:05:45.303Z,48.34
2023-05-03T12:08:14.319Z,48.05
2023-05-03T12:10:42.907Z,49.53
2023-05-03T12:13:10.253Z,49.30
2023-05-03T12:15:37.510Z,48.84
2023-05-03T12:18:04.844Z,47.77
2023-05-03T12:25:33.665Z,49.61
2023-05-03T12:30:33.684Z,51.30
2023-05-03T12:33:04.130Z,51.92
2023-05-03T12:35:33.488Z,51.40
2023-05-03T12:38:02.833Z,50.13
2023-05-03T12:40:34.114Z,49.48
2023-05-03T12:43:01.864Z,49.84
2023-05-03T12:45:28.697Z,49.87
2023-05-03T12:47:55.496Z,49.52
2023-05-03T12:50:24.785Z,49.51
2023-05-03T12:52:53.104Z,49.71
2023-05-03T12:55:24.536Z,49.56
2023-05-03T12:58:13.828Z,49.87
2023-05-03T13:00:46.546Z,49.51
2023-05-03T13:03:32.787Z,50.35
2023-05-03T13:06:00.861Z,50.91
2023-05-03T13:08:34.138Z,50.27
2023-05-03T13:11:02.198Z,49.75
2023-05-03T13:13:29.074Z,49.67
2023-05-03T13:15:56.596Z,49.80
2023-05-03T13:18:23.351Z,50.28
2023-05-03T13:20:50.143Z,50.09
2023-05-03T13:23:16.957Z,50.44
2023-05-03T13:25:43.537Z,51.08
2023-05-03T13:28:10.241Z,51.55
2023-05-03T13:30:37.057Z,51.83
2023-05-03T13:33:03.910Z,51.59
2023-05-03T13:35:30.692Z,51.29
2023-05-03T13:37:57.425Z,51.21
2023-05-03T13:40:24.071Z,50.80
2023-05-03T13:42:50.978Z,50.83
2023-05-03T13:45:17.872Z,50.74
2023-05-03T13:50:14.039Z,51.16
2023-05-03T13:52:40.832Z,50.79
2023-05-03T13:55:07.756Z,50.82
2023-05-03T13:57:34.490Z,50.94
2023-05-03T14:00:01.447Z,51.52
2023-05-03T14:02:28.353Z,51.32
2023-05-03T14:04:55.095Z,50.62
2023-05-03T14:07:21.908Z,50.71
2023-05-03T14:09:48.739Z,51.04
2023-05-03T14:12:15.351Z,50.62
2023-05-03T14:14:42.311Z,50.38
2023-05-03T14:17:09.155Z,50.66
2023-05-03T14:19:35.984Z,51.52
2023-05-03T14:22:02.865Z,51.75
2023-05-03T14:24:29.707Z,51.86
2023-05-03T14:26:56.633Z,51.61
2023-05-03T14:29:23.293Z,51.44
2023-05-03T14:31:50.021Z,51.06
2023-05-03T14:34:16.847Z,51.14
2023-05-03T14:36:43.754Z,51.53
2023-05-03T14:39:10.697Z,52.76
2023-05-03T14:41:37.465Z,52.87
2023-05-03T14:44:04.154Z,53.07
2023-05-03T14:46:31.041Z,53.19
2023-05-03T14:48:57.738Z,52.95
2023-05-03T14:51:24.390Z,52.71
2023-05-03T14:53:51.320Z,52.59
2023-05-03T14:56:18.065Z,52.90
2023-05-03T14:58:44.775Z,52.23
2023-05-03T15:01:11.442Z,52.58
2023-05-03T15:03:38.530Z,52.09
2023-05-03T15:06:05.146Z,52.09
2023-05-03T15:08:31.730Z,52.00
2023-05-03T15:10:58.394Z,52.40
2023-05-03T15:13:25.210Z,52.77
2023-05-03T15:15:52.187Z,52.99
2023-05-03T15:18:19.355Z,52.98
2023-05-03T15:20:46.280Z,53.30
2023-05-03T15:23:13.013Z,53.19
2023-05-03T15:25:39.658Z,53.51
2023-05-03T15:28:08.528Z,53.00
2023-05-03T15:30:35.243Z,53.32
2023-05-03T15:33:02.097Z,53.39
2023-05-03T15:35:28.816Z,53.11
2023-05-03T15:37:55.434Z,53.33
2023-05-03T15:40:24.459Z,54.21
2023-05-03T15:42:52.818Z,54.54
2023-05-03T15:45:19.458Z,54.53
2023-05-03T15:47:46.176Z,54.30
2023-05-03T15:50:12.957Z,54.48
2023-05-03T15:52:39.737Z,54.17
2023-05-03T15:55:06.330Z,53.75
2023-05-03T15:57:32.944Z,54.12
2023-05-03T15:59:59.515Z,54.76
2023-05-03T16:02:26.075Z,54.72
2023-05-03T16:04:52.725Z,55.37
2023-05-03T16:07:19.380Z,54.54
2023-05-03T16:09:45.993Z,55.79
2023-05-03T16:12:12.593Z,55.73
2023-05-03T16:14:39.170Z,56.28
2023-05-03T16:17:05.750Z,56.42
2023-05-03T16:19:32.368Z,56.03
2023-05-03T16:21:58.966Z,55.66
2023-05-03T16:24:25.615Z,55.56
2023-05-03T16:26:52.227Z,55.66
2023-05-03T16:29:18.799Z,54.99
2023-05-03T16:31:45.359Z,54.35
2023-05-03T16:34:11.989Z,53.96
2023-05-03T16:36:39.889Z,53.71
2023-05-03T16:39:06.567Z,54.00
2023-05-03T16:41:33.167Z,53.92
2023-05-03T16:43:59.718Z,54.16
2023-05-03T16:46:26.402Z,54.13
2023-05-03T16:48:53.033Z,53.99
2023-05-03T16:51:19.647Z,53.89
2023-05-03T16:53:46.235Z,54.30
2023-05-03T16:56:12.828Z,54.03
2023-05-03T16:58:39.407Z,54.48
2023-05-03T17:01:06.048Z,54.53
2023-05-03T17:03:32.822Z,54.48
2023-05-03T17:06:00.316Z,54.45
2023-05-03T17:08:28.139Z,54.55
2023-05-03T17:10:54.741Z,54.70
2023-05-03T17:13:21.496Z,55.15
2023-05-03T17:15:48.204Z,54.91
2023-05-03T17:18:14.927Z,54.59
2023-05-03T17:20:41.584Z,55.34
2023-05-03T17:23:08.158Z,55.04
2023-05-03T17:25:34.758Z,55.31
2023-05-03T17:28:01.363Z,55.02
2023-05-03T17:30:27.920Z,55.55
2023-05-03T17:32:54.582Z,55.47
2023-05-03T17:35:21.464Z,55.39
2023-05-03T17:37:48.082Z,55.79
2023-05-03T17:40:14.658Z,55.57
2023-05-03T17:42:41.686Z,55.49
2023-05-03T17:45:08.297Z,53.43
2023-05-03T17:47:35.172Z,53.94
2023-05-03T17:50:02.085Z,54.12
2023-05-03T17:52:28.845Z,53.37
2023-05-03T17:54:55.429Z,53.70
2023-05-03T17:57:21.991Z,53.55
2023-05-03T17:59:48.666Z,51.97
2023-05-03T18:02:15.296Z,52.03
2023-05-03T18:04:41.877Z,51.02
2023-05-03T18:07:08.482Z,51.32
2023-05-03T18:09:35.061Z,51.61
2023-05-03T18:12:01.715Z,51.86
2023-05-03T18:14:28.303Z,52.17
2023-05-03T18:16:55.081Z,52.38
2023-05-03T18:19:21.896Z,52.64
2023-05-03T18:21:48.853Z,52.67
2023-05-03T18:24:15.592Z,53.05
2023-05-03T18:26:42.213Z,52.64
2023-05-03T18:29:08.846Z,52.55
2023-05-03T18:31:35.475Z,52.88
2023-05-03T18:34:02.334Z,52.86
2023-05-03T18:36:28.949Z,52.79
2023-05-03T18:38:55.513Z,53.48
2023-05-03T18:41:22.657Z,52.97
2023-05-03T18:43:49.246Z,53.28
2023-05-03T18:46:16.172Z,53.76
2023-05-03T18:48:42.804Z,53.82
2023-05-03T18:51:09.376Z,54.33
2023-05-03T18:53:35.968Z,54.46
2023-05-03T18:56:02.542Z,53.38
2023-05-03T18:58:29.157Z,52.98
2023-05-03T19:00:55.768Z,53.27
2023-05-03T19:03:22.373Z,53.39
2023-05-03T19:05:49.012Z,53.81
2023-05-03T19:08:15.596Z,53.54
2023-05-03T19:10:42.267Z,53.96
2023-05-03T19:13:08.951Z,54.14
2023-05-03T19:15:35.539Z,54.04
2023-05-03T19:18:02.201Z,54.36
2023-05-03T19:20:28.945Z,54.13
2023-05-03T19:22:55.537Z,53.65
2023-05-03T19:25:22.119Z,54.19
2023-05-03T19:27:48.736Z,54.68
2023-05-03T19:30:16.675Z,54.72
2023-05-03T19:32:43.364Z,54.19
2023-05-03T19:35:10.010Z,55.67
2023-05-03T19:37:36.616Z,55.54
2023-05-03T19:40:03.446Z,56.18
2023-05-03T19:42:30.203Z,55.08
2023-05-03T19:44:56.789Z,55.11
2023-05-03T19:47:23.587Z,55.47
2023-05-03T19:49:50.221Z,54.90
2023-05-03T19:52:16.820Z,54.85
2023-05-03T19:54:43.382Z,54.91
2023-05-03T19:57:09.938Z,54.91
2023-05-03T19:59:36.517Z,54.73
2023-05-03T20:02:03.368Z,54.73
2023-05-03T20:04:30.137Z,54.78
2023-05-03T20:06:56.736Z,54.30
2023-05-03T20:09:23.814Z,54.31
2023-05-03T20:11:50.437Z,54.12
2023-05-03T20:14:16.999Z,53.93
2023-05-03T20:16:43.611Z,53.73
2023-05-03T20:19:10.254Z,53.73
2023-05-03T20:21:37.894Z,53.62
2023-05-03T20:24:04.563Z,53.34
2023-05-03T20:26:31.154Z,54.01
2023-05-03T20:28:57.778Z,53.53
2023-05-03T20:31:24.435Z,53.53
2023-05-03T20:33:51.084Z,53.09
2023-05-03T20:36:17.872Z,54.37
2023-05-03T20:38:44.422Z,54.35
2023-05-03T20:41:11.052Z,53.17
2023-05-03T20:43:37.650Z,53.01
2023-05-03T20:46:04.289Z,52.85
2023-05-03T20:48:30.961Z,53.99
2023-05-03T20:50:57.604Z,54.65
2023-05-03T20:53:24.208Z,54.13
2023-05-03T20:55:50.893Z,53.64
2023-05-03T20:58:17.491Z,53.96
2023-05-03T21:00:44.082Z,55.26
2023-05-03T21:03:10.714Z,54.90
2023-05-03T21:05:37.390Z,54.64
2023-05-03T21:08:03.983Z,54.88
2023-05-03T21:10:30.615Z,55.01
2023-05-03T21:12:57.240Z,54.40
2023-05-03T21:15:23.932Z,54.66
2023-05-03T21:17:50.550Z,54.43
2023-05-03T21:20:17.151Z,54.17
2023-05-03T21:22:43.831Z,54.56
2023-05-03T21:25:10.440Z,55.25
2023-05-03T21:27:37.061Z,54.98
2023-05-03T21:30:03.916Z,55.32
2023-05-03T21:32:30.721Z,55.19
2023-05-03T21:34:57.318Z,55.12
2023-05-03T21:37:24.004Z,54.79
2023-05-03T21:40:01.023Z,55.58
2023-05-03T21:42:28.828Z,55.29
2023-05-03T21:44:55.411Z,55.53
2023-05-03T21:47:22.918Z,55.56
2023-05-03T21:49:49.482Z,55.98
2023-05-03T21:52:16.074Z,56.09
2023-05-03T21:54:42.646Z,56.09
2023-05-03T21:57:09.222Z,56.24
2023-05-03T21:59:35.831Z,56.77
2023-05-03T22:02:02.690Z,55.91
2023-05-03T22:04:29.414Z,56.25
2023-05-03T22:06:55.996Z,56.28
2023-05-03T22:09:22.615Z,56.46
2023-05-03T22:11:49.275Z,56.96
2023-05-03T22:14:17.223Z,56.87
2023-05-03T22:16:43.826Z,56.99
2023-05-03T22:19:10.741Z,56.96
2023-05-03T22:21:37.285Z,57.15
2023-05-03T22:24:06.408Z,57.63
2023-05-03T22:26:33.057Z,57.08
2023-05-03T22:28:59.653Z,57.17
2023-05-03T22:31:26.268Z,56.90
2023-05-03T22:33:53.089Z,56.90
2023-05-03T22:36:19.724Z,56.86
2023-05-03T22:38:46.356Z,56.97
2023-05-03T22:41:12.993Z,57.19
2023-05-03T22:43:39.573Z,57.39
2023-05-03T22:46:06.176Z,57.47
2023-05-03T22:48:32.800Z,57.26
2023-05-03T22:50:59.364Z,57.71
2023-05-03T22:53:25.984Z,57.67
2023-05-03T22:55:52.546Z,57.25
2023-05-03T22:58:19.213Z,57.96
2023-05-03T23:00:45.853Z,58.31
2023-05-03T23:03:12.577Z,57.98
2023-05-03T23:05:39.352Z,57.38
2023-05-03T23:08:05.940Z,57.44
2023-05-03T23:10:32.517Z,56.98
2023-05-03T23:12:59.199Z,57.03
2023-05-03T23:15:25.847Z,57.07
2023-05-03T23:17:52.702Z,57.24
2023-05-03T23:20:19.369Z,57.08
2023-05-03T23:22:46.122Z,57.09
2023-05-03T23:25:12.685Z,57.30
2023-05-03T23:27:39.299Z,57.73
2023-05-03T23:30:06.386Z,57.93
2023-05-03T23:32:33.739Z,57.75
2023-05-03T23:35:00.838Z,57.40
2023-05-03T23:37:27.430Z,57.70
2023-05-03T23:39:54.035Z,57.63
2023-05-03T23:42:20.608Z,57.85
2023-05-03T23:44:55.223Z,58.37
2023-05-03T23:47:22.516Z,58.58
2023-05-03T23:49:49.094Z,58.16
2023-05-03T23:52:15.678Z,58.70
2023-05-03T23:54:43.472Z,58.51
2023-05-03T23:57:10.122Z,58.40
2023-05-03T23:59:36.680Z,58.53
